sensor_id;sensor_type;location;lat;lon;timestamp;P1;durP1;ratioP1;P2;durP2;ratioP2
19877;SDS011;10101;52.204;9.910;2023-12-14T00:02:15;7.13;;;4.37;;
19877;SDS011;10101;52.204;9.910;2023-12-14T00:04:42;7.03;;;4.27;;
19877;SDS011;10101;52.204;9.910;2023-12-14T00:07:10;6.50;;;4.70;;
19877;SDS011;10101;52.204;9.910;2023-12-14T00:09:39;6.93;;;4.77;;
19877;SDS011;10101;52.204;9.910;2023-12-14T00:12:06;6.63;;;4.60;;
19877;SDS011;10101;52.204;9.910;2023-12-14T00:14:33;6.40;;;4.77;;
19877;SDS011;10101;52.204;9.910;2023-12-14T00:16:59;7.37;;;4.67;;
19877;SDS011;10101;52.204;9.910;2023-12-14T00:19:26;7.10;;;4.37;;
19877;SDS011;10101;52.204;9.910;2023-12-14T00:21:53;7.53;;;4.60;;
19877;SDS011;10101;52.204;9.910;2023-12-14T00:24:21;7.77;;;4.70;;
19877;SDS011;10101;52.204;9.910;2023-12-14T00:26:48;8.40;;;4.13;;
19877;SDS011;10101;52.204;9.910;2023-12-14T00:29:14;6.30;;;4.00;;
19877;SDS011;10101;52.204;9.910;2023-12-14T00:31:41;6.40;;;4.00;;
19877;SDS011;10101;52.204;9.910;2023-12-14T00:34:08;6.50;;;3.73;;
19877;SDS011;10101;52.204;9.910;2023-12-14T00:36:34;5.30;;;3.67;;
19877;SDS011;10101;52.204;9.910;2023-12-14T00:39:01;7.20;;;4.00;;
19877;SDS011;10101;52.204;9.910;2023-12-14T00:41:29;4.53;;;3.60;;
19877;SDS011;10101;52.204;9.910;2023-12-14T00:43:56;6.20;;;3.87;;
19877;SDS011;10101;52.204;9.910;2023-12-14T00:46:23;8.03;;;4.03;;
19877;SDS011;10101;52.204;9.910;2023-12-14T00:48:49;6.20;;;4.23;;
19877;SDS011;10101;52.204;9.910;2023-12-14T00:51:16;6.00;;;3.93;;
19877;SDS011;10101;52.204;9.910;2023-12-14T00:53:43;6.27;;;3.63;;
19877;SDS011;10101;52.204;9.910;2023-12-14T00:56:09;4.73;;;3.50;;
19877;SDS011;10101;52.204;9.910;2023-12-14T00:58:38;5.37;;;3.20;;
19877;SDS011;10101;52.204;9.910;2023-12-14T01:01:04;4.27;;;3.20;;
19877;SDS011;10101;52.204;9.910;2023-12-14T01:03:31;8.83;;;4.10;;
19877;SDS011;10101;52.204;9.910;2023-12-14T01:05:58;5.13;;;3.20;;
19877;SDS011;10101;52.204;9.910;2023-12-14T01:08:25;6.53;;;3.83;;
19877;SDS011;10101;52.204;9.910;2023-12-14T01:10:51;6.40;;;3.47;;
19877;SDS011;10101;52.204;9.910;2023-12-14T01:13:18;4.70;;;3.07;;
19877;SDS011;10101;52.204;9.910;2023-12-14T01:15:46;4.37;;;3.43;;
19877;SDS011;10101;52.204;9.910;2023-12-14T01:18:13;5.30;;;3.63;;
19877;SDS011;10101;52.204;9.910;2023-12-14T01:20:39;5.83;;;3.57;;
19877;SDS011;10101;52.204;9.910;2023-12-14T01:23:06;5.67;;;3.50;;
19877;SDS011;10101;52.204;9.910;2023-12-14T01:25:34;6.30;;;3.60;;
19877;SDS011;10101;52.204;9.910;2023-12-14T01:28:01;6.37;;;3.70;;
19877;SDS011;10101;52.204;9.910;2023-12-14T01:30:28;5.30;;;3.50;;
19877;SDS011;10101;52.204;9.910;2023-12-14T01:32:56;4.43;;;3.23;;
19877;SDS011;10101;52.204;9.910;2023-12-14T01:35:22;4.73;;;3.67;;
19877;SDS011;10101;52.204;9.910;2023-12-14T01:37:49;5.73;;;3.77;;
19877;SDS011;10101;52.204;9.910;2023-12-14T01:40:18;6.10;;;4.00;;
19877;SDS011;10101;52.204;9.910;2023-12-14T01:42:45;3.83;;;3.17;;
19877;SDS011;10101;52.204;9.910;2023-12-14T01:45:12;5.47;;;3.70;;
19877;SDS011;10101;52.204;9.910;2023-12-14T01:47:40;5.83;;;3.63;;
19877;SDS011;10101;52.204;9.910;2023-12-14T01:50:09;4.43;;;3.23;;
19877;SDS011;10101;52.204;9.910;2023-12-14T01:52:35;4.53;;;3.13;;
19877;SDS011;10101;52.204;9.910;2023-12-14T01:55:02;7.10;;;3.70;;
19877;SDS011;10101;52.204;9.910;2023-12-14T01:57:29;3.87;;;3.10;;
19877;SDS011;10101;52.204;9.910;2023-12-14T01:59:56;5.03;;;3.20;;
19877;SDS011;10101;52.204;9.910;2023-12-14T02:02:22;5.43;;;3.70;;
19877;SDS011;10101;52.204;9.910;2023-12-14T02:04:49;6.80;;;3.37;;
19877;SDS011;10101;52.204;9.910;2023-12-14T02:07:17;6.10;;;3.47;;
19877;SDS011;10101;52.204;9.910;2023-12-14T02:09:44;8.90;;;3.80;;
19877;SDS011;10101;52.204;9.910;2023-12-14T02:12:11;5.97;;;3.30;;
19877;SDS011;10101;52.204;9.910;2023-12-14T02:14:37;6.87;;;4.00;;
19877;SDS011;10101;52.204;9.910;2023-12-14T02:17:04;5.77;;;4.00;;
19877;SDS011;10101;52.204;9.910;2023-12-14T02:19:31;6.30;;;3.67;;
19877;SDS011;10101;52.204;9.910;2023-12-14T02:21:57;5.17;;;3.90;;
19877;SDS011;10101;52.204;9.910;2023-12-14T02:24:25;5.23;;;4.17;;
19877;SDS011;10101;52.204;9.910;2023-12-14T02:26:52;5.63;;;4.20;;
19877;SDS011;10101;52.204;9.910;2023-12-14T02:29:19;4.43;;;3.50;;
19877;SDS011;10101;52.204;9.910;2023-12-14T02:31:46;7.10;;;4.00;;
19877;SDS011;10101;52.204;9.910;2023-12-14T02:34:13;5.47;;;3.73;;
19877;SDS011;10101;52.204;9.910;2023-12-14T02:36:40;5.27;;;3.83;;
19877;SDS011;10101;52.204;9.910;2023-12-14T02:39:06;4.33;;;3.60;;
19877;SDS011;10101;52.204;9.910;2023-12-14T02:41:34;6.77;;;3.97;;
19877;SDS011;10101;52.204;9.910;2023-12-14T02:44:01;4.63;;;3.90;;
19877;SDS011;10101;52.204;9.910;2023-12-14T02:46:28;5.03;;;3.87;;
19877;SDS011;10101;52.204;9.910;2023-12-14T02:48:54;4.63;;;3.60;;
19877;SDS011;10101;52.204;9.910;2023-12-14T02:51:21;6.33;;;4.20;;
19877;SDS011;10101;52.204;9.910;2023-12-14T02:53:48;6.03;;;3.93;;
19877;SDS011;10101;52.204;9.910;2023-12-14T02:56:15;5.37;;;4.10;;
19877;SDS011;10101;52.204;9.910;2023-12-14T02:58:43;5.40;;;4.00;;
19877;SDS011;10101;52.204;9.910;2023-12-14T03:01:09;4.10;;;3.00;;
19877;SDS011;10101;52.204;9.910;2023-12-14T03:03:38;3.80;;;3.33;;
19877;SDS011;10101;52.204;9.910;2023-12-14T03:06:05;3.43;;;2.87;;
19877;SDS011;10101;52.204;9.910;2023-12-14T03:08:31;3.93;;;3.00;;
19877;SDS011;10101;52.204;9.910;2023-12-14T03:10:58;5.87;;;3.17;;
19877;SDS011;10101;52.204;9.910;2023-12-14T03:13:25;5.90;;;3.10;;
19877;SDS011;10101;52.204;9.910;2023-12-14T03:15:55;4.17;;;3.10;;
19877;SDS011;10101;52.204;9.910;2023-12-14T03:18:22;4.47;;;3.10;;
19877;SDS011;10101;52.204;9.910;2023-12-14T03:20:49;3.67;;;2.93;;
19877;SDS011;10101;52.204;9.910;2023-12-14T03:23:16;4.43;;;3.07;;
19877;SDS011;10101;52.204;9.910;2023-12-14T03:25:42;3.80;;;3.13;;
19877;SDS011;10101;52.204;9.910;2023-12-14T03:28:09;5.07;;;3.10;;
19877;SDS011;10101;52.204;9.910;2023-12-14T03:30:35;3.90;;;3.37;;
19877;SDS011;10101;52.204;9.910;2023-12-14T03:33:04;3.53;;;2.90;;
19877;SDS011;10101;52.204;9.910;2023-12-14T03:35:32;5.10;;;3.60;;
19877;SDS011;10101;52.204;9.910;2023-12-14T03:37:59;5.27;;;3.80;;
19877;SDS011;10101;52.204;9.910;2023-12-14T03:40:26;4.63;;;3.50;;
19877;SDS011;10101;52.204;9.910;2023-12-14T03:42:52;4.87;;;3.67;;
19877;SDS011;10101;52.204;9.910;2023-12-14T03:45:19;6.00;;;3.97;;
19877;SDS011;10101;52.204;9.910;2023-12-14T03:47:46;6.23;;;3.97;;
19877;SDS011;10101;52.204;9.910;2023-12-14T03:50:14;5.07;;;3.93;;
19877;SDS011;10101;52.204;9.910;2023-12-14T03:52:41;5.83;;;4.07;;
19877;SDS011;10101;52.204;9.910;2023-12-14T03:55:07;6.40;;;4.07;;
19877;SDS011;10101;52.204;9.910;2023-12-14T03:57:34;6.40;;;4.30;;
19877;SDS011;10101;52.204;9.910;2023-12-14T04:00:01;7.77;;;4.83;;
19877;SDS011;10101;52.204;9.910;2023-12-14T04:02:28;7.57;;;4.90;;
19877;SDS011;10101;52.204;9.910;2023-12-14T04:04:55;6.07;;;4.37;;
19877;SDS011;10101;52.204;9.910;2023-12-14T04:07:23;7.73;;;5.27;;
19877;SDS011;10101;52.204;9.910;2023-12-14T04:09:50;7.93;;;5.50;;
19877;SDS011;10101;52.204;9.910;2023-12-14T04:12:16;6.10;;;4.53;;
19877;SDS011;10101;52.204;9.910;2023-12-14T04:14:43;6.40;;;4.60;;
19877;SDS011;10101;52.204;9.910;2023-12-14T04:17:11;8.10;;;5.13;;
19877;SDS011;10101;52.204;9.910;2023-12-14T04:19:38;7.47;;;4.93;;
19877;SDS011;10101;52.204;9.910;2023-12-14T04:22:05;6.90;;;4.30;;
19877;SDS011;10101;52.204;9.910;2023-12-14T04:24:33;5.73;;;4.20;;
19877;SDS011;10101;52.204;9.910;2023-12-14T04:27:00;6.23;;;4.30;;
19877;SDS011;10101;52.204;9.910;2023-12-14T04:29:26;7.67;;;5.13;;
19877;SDS011;10101;52.204;9.910;2023-12-14T04:31:53;8.40;;;5.53;;
19877;SDS011;10101;52.204;9.910;2023-12-14T04:34:20;7.17;;;5.20;;
19877;SDS011;10101;52.204;9.910;2023-12-14T04:36:47;8.27;;;5.77;;
19877;SDS011;10101;52.204;9.910;2023-12-14T04:39:14;9.87;;;5.97;;
19877;SDS011;10101;52.204;9.910;2023-12-14T04:41:43;8.40;;;5.70;;
19877;SDS011;10101;52.204;9.910;2023-12-14T04:44:10;9.87;;;6.83;;
19877;SDS011;10101;52.204;9.910;2023-12-14T04:46:37;9.23;;;6.30;;
19877;SDS011;10101;52.204;9.910;2023-12-14T04:49:03;13.07;;;6.30;;
19877;SDS011;10101;52.204;9.910;2023-12-14T04:51:30;10.07;;;6.03;;
19877;SDS011;10101;52.204;9.910;2023-12-14T04:53:58;8.80;;;5.73;;
19877;SDS011;10101;52.204;9.910;2023-12-14T04:56:24;9.93;;;5.50;;
19877;SDS011;10101;52.204;9.910;2023-12-14T04:58:52;11.50;;;6.40;;
19877;SDS011;10101;52.204;9.910;2023-12-14T05:01:19;10.23;;;6.07;;
19877;SDS011;10101;52.204;9.910;2023-12-14T05:03:46;9.90;;;6.37;;
19877;SDS011;10101;52.204;9.910;2023-12-14T05:06:13;11.27;;;6.00;;
19877;SDS011;10101;52.204;9.910;2023-12-14T05:08:39;11.27;;;6.77;;
19877;SDS011;10101;52.204;9.910;2023-12-14T05:11:06;10.20;;;6.67;;
19877;SDS011;10101;52.204;9.910;2023-12-14T05:13:33;11.03;;;6.40;;
19877;SDS011;10101;52.204;9.910;2023-12-14T05:16:01;13.20;;;7.73;;
19877;SDS011;10101;52.204;9.910;2023-12-14T05:18:28;16.00;;;7.23;;
19877;SDS011;10101;52.204;9.910;2023-12-14T05:20:55;12.23;;;7.40;;
19877;SDS011;10101;52.204;9.910;2023-12-14T05:23:22;13.40;;;7.20;;
19877;SDS011;10101;52.204;9.910;2023-12-14T05:25:49;11.37;;;6.53;;
19877;SDS011;10101;52.204;9.910;2023-12-14T05:28:16;9.47;;;6.10;;
19877;SDS011;10101;52.204;9.910;2023-12-14T05:30:43;9.50;;;6.43;;
19877;SDS011;10101;52.204;9.910;2023-12-14T05:33:11;11.27;;;6.70;;
19877;SDS011;10101;52.204;9.910;2023-12-14T05:35:37;12.80;;;7.27;;
19877;SDS011;10101;52.204;9.910;2023-12-14T05:38:04;11.83;;;6.30;;
19877;SDS011;10101;52.204;9.910;2023-12-14T05:40:31;10.57;;;6.73;;
19877;SDS011;10101;52.204;9.910;2023-12-14T05:42:58;9.47;;;6.57;;
19877;SDS011;10101;52.204;9.910;2023-12-14T05:45:25;8.43;;;6.63;;
19877;SDS011;10101;52.204;9.910;2023-12-14T05:47:51;9.40;;;6.80;;
19877;SDS011;10101;52.204;9.910;2023-12-14T05:50:19;13.63;;;6.30;;
19877;SDS011;10101;52.204;9.910;2023-12-14T05:52:47;11.03;;;7.10;;
19877;SDS011;10101;52.204;9.910;2023-12-14T05:55:14;9.80;;;6.20;;
19877;SDS011;10101;52.204;9.910;2023-12-14T05:57:43;12.03;;;7.23;;
19877;SDS011;10101;52.204;9.910;2023-12-14T06:00:11;11.07;;;6.43;;
19877;SDS011;10101;52.204;9.910;2023-12-14T06:02:38;10.63;;;6.90;;
19877;SDS011;10101;52.204;9.910;2023-12-14T06:05:05;13.30;;;6.43;;
19877;SDS011;10101;52.204;9.910;2023-12-14T06:07:34;10.10;;;6.77;;
19877;SDS011;10101;52.204;9.910;2023-12-14T06:10:02;15.43;;;7.00;;
19877;SDS011;10101;52.204;9.910;2023-12-14T06:12:29;9.87;;;5.93;;
19877;SDS011;10101;52.204;9.910;2023-12-14T06:14:56;9.10;;;6.23;;
19877;SDS011;10101;52.204;9.910;2023-12-14T06:17:23;10.33;;;7.00;;
19877;SDS011;10101;52.204;9.910;2023-12-14T06:19:49;9.17;;;6.23;;
19877;SDS011;10101;52.204;9.910;2023-12-14T06:22:16;8.10;;;6.07;;
19877;SDS011;10101;52.204;9.910;2023-12-14T06:24:44;10.23;;;6.93;;
19877;SDS011;10101;52.204;9.910;2023-12-14T06:27:11;10.80;;;6.20;;
19877;SDS011;10101;52.204;9.910;2023-12-14T06:29:38;11.00;;;5.77;;
19877;SDS011;10101;52.204;9.910;2023-12-14T06:32:05;8.13;;;5.77;;
19877;SDS011;10101;52.204;9.910;2023-12-14T06:34:32;9.23;;;5.80;;
19877;SDS011;10101;52.204;9.910;2023-12-14T06:37:00;9.00;;;5.73;;
19877;SDS011;10101;52.204;9.910;2023-12-14T06:39:28;9.17;;;5.90;;
19877;SDS011;10101;52.204;9.910;2023-12-14T06:41:56;8.07;;;5.67;;
19877;SDS011;10101;52.204;9.910;2023-12-14T06:44:22;9.27;;;6.17;;
19877;SDS011;10101;52.204;9.910;2023-12-14T06:46:51;8.50;;;5.37;;
19877;SDS011;10101;52.204;9.910;2023-12-14T06:49:18;7.67;;;5.47;;
19877;SDS011;10101;52.204;9.910;2023-12-14T06:51:44;8.00;;;5.57;;
19877;SDS011;10101;52.204;9.910;2023-12-14T06:54:11;10.67;;;6.10;;
19877;SDS011;10101;52.204;9.910;2023-12-14T06:56:38;10.07;;;6.60;;
19877;SDS011;10101;52.204;9.910;2023-12-14T06:59:06;9.23;;;5.77;;
19877;SDS011;10101;52.204;9.910;2023-12-14T07:01:33;7.70;;;5.47;;
19877;SDS011;10101;52.204;9.910;2023-12-14T07:03:59;8.50;;;5.57;;
19877;SDS011;10101;52.204;9.910;2023-12-14T07:06:28;8.33;;;5.30;;
19877;SDS011;10101;52.204;9.910;2023-12-14T07:08:54;8.40;;;6.27;;
19877;SDS011;10101;52.204;9.910;2023-12-14T07:11:21;8.07;;;5.80;;
19877;SDS011;10101;52.204;9.910;2023-12-14T07:13:48;10.67;;;6.23;;
19877;SDS011;10101;52.204;9.910;2023-12-14T07:16:16;8.83;;;5.50;;
19877;SDS011;10101;52.204;9.910;2023-12-14T07:18:43;9.33;;;6.20;;
19877;SDS011;10101;52.204;9.910;2023-12-14T07:21:10;9.87;;;5.60;;
19877;SDS011;10101;52.204;9.910;2023-12-14T07:23:37;9.20;;;5.70;;
19877;SDS011;10101;52.204;9.910;2023-12-14T07:26:04;7.40;;;5.60;;
19877;SDS011;10101;52.204;9.910;2023-12-14T07:28:30;7.77;;;5.50;;
19877;SDS011;10101;52.204;9.910;2023-12-14T07:30:57;7.03;;;5.20;;
19877;SDS011;10101;52.204;9.910;2023-12-14T07:33:25;7.90;;;5.57;;
19877;SDS011;10101;52.204;9.910;2023-12-14T07:35:52;8.00;;;4.93;;
19877;SDS011;10101;52.204;9.910;2023-12-14T07:38:19;8.90;;;5.20;;
19877;SDS011;10101;52.204;9.910;2023-12-14T07:40:46;12.07;;;7.50;;
19877;SDS011;10101;52.204;9.910;2023-12-14T07:43:15;9.73;;;6.47;;
19877;SDS011;10101;52.204;9.910;2023-12-14T07:45:41;8.97;;;6.60;;
19877;SDS011;10101;52.204;9.910;2023-12-14T07:48:08;9.20;;;6.07;;
19877;SDS011;10101;52.204;9.910;2023-12-14T07:50:36;8.07;;;5.77;;
19877;SDS011;10101;52.204;9.910;2023-12-14T07:53:03;6.73;;;4.93;;
19877;SDS011;10101;52.204;9.910;2023-12-14T07:55:30;7.23;;;5.23;;
19877;SDS011;10101;52.204;9.910;2023-12-14T07:57:57;8.03;;;5.47;;
19877;SDS011;10101;52.204;9.910;2023-12-14T08:00:23;7.60;;;5.77;;
19877;SDS011;10101;52.204;9.910;2023-12-14T08:02:50;9.13;;;5.93;;
19877;SDS011;10101;52.204;9.910;2023-12-14T08:05:17;12.07;;;6.43;;
19877;SDS011;10101;52.204;9.910;2023-12-14T08:07:45;8.10;;;5.30;;
19877;SDS011;10101;52.204;9.910;2023-12-14T08:10:13;9.40;;;5.70;;
19877;SDS011;10101;52.204;9.910;2023-12-14T08:12:39;8.43;;;5.63;;
19877;SDS011;10101;52.204;9.910;2023-12-14T08:15:07;8.37;;;5.73;;
19877;SDS011;10101;52.204;9.910;2023-12-14T08:17:35;9.43;;;6.17;;
19877;SDS011;10101;52.204;9.910;2023-12-14T08:20:02;8.40;;;6.03;;
19877;SDS011;10101;52.204;9.910;2023-12-14T08:22:33;9.60;;;6.60;;
19877;SDS011;10101;52.204;9.910;2023-12-14T08:25:02;10.63;;;6.80;;
19877;SDS011;10101;52.204;9.910;2023-12-14T08:27:29;9.73;;;6.90;;
19877;SDS011;10101;52.204;9.910;2023-12-14T08:29:56;9.00;;;6.00;;
19877;SDS011;10101;52.204;9.910;2023-12-14T08:32:23;8.63;;;6.50;;
19877;SDS011;10101;52.204;9.910;2023-12-14T08:34:49;9.13;;;6.93;;
19877;SDS011;10101;52.204;9.910;2023-12-14T08:37:17;9.97;;;6.57;;
19877;SDS011;10101;52.204;9.910;2023-12-14T08:39:44;9.07;;;5.93;;
19877;SDS011;10101;52.204;9.910;2023-12-14T08:42:12;7.57;;;5.30;;
19877;SDS011;10101;52.204;9.910;2023-12-14T08:44:39;7.60;;;5.57;;
19877;SDS011;10101;52.204;9.910;2023-12-14T08:47:06;7.33;;;4.80;;
19877;SDS011;10101;52.204;9.910;2023-12-14T08:49:34;8.17;;;5.13;;
19877;SDS011;10101;52.204;9.910;2023-12-14T08:52:01;6.83;;;5.60;;
19877;SDS011;10101;52.204;9.910;2023-12-14T08:54:29;9.37;;;5.77;;
19877;SDS011;10101;52.204;9.910;2023-12-14T08:56:55;7.93;;;5.10;;
19877;SDS011;10101;52.204;9.910;2023-12-14T08:59:23;7.27;;;4.57;;
19877;SDS011;10101;52.204;9.910;2023-12-14T09:01:50;6.43;;;4.40;;
19877;SDS011;10101;52.204;9.910;2023-12-14T09:04:17;5.50;;;4.17;;
19877;SDS011;10101;52.204;9.910;2023-12-14T09:06:44;6.70;;;4.47;;
19877;SDS011;10101;52.204;9.910;2023-12-14T09:09:11;5.87;;;4.60;;
19877;SDS011;10101;52.204;9.910;2023-12-14T09:11:37;7.73;;;3.93;;
19877;SDS011;10101;52.204;9.910;2023-12-14T09:14:05;5.43;;;4.13;;
19877;SDS011;10101;52.204;9.910;2023-12-14T09:16:33;6.27;;;4.30;;
19877;SDS011;10101;52.204;9.910;2023-12-14T09:19:00;6.97;;;4.63;;
19877;SDS011;10101;52.204;9.910;2023-12-14T09:21:27;6.50;;;4.43;;
19877;SDS011;10101;52.204;9.910;2023-12-14T09:23:53;4.30;;;3.60;;
19877;SDS011;10101;52.204;9.910;2023-12-14T09:26:20;7.43;;;3.30;;
19877;SDS011;10101;52.204;9.910;2023-12-14T09:28:47;5.00;;;3.43;;
19877;SDS011;10101;52.204;9.910;2023-12-14T09:31:13;4.40;;;2.93;;
19877;SDS011;10101;52.204;9.910;2023-12-14T09:33:42;4.63;;;3.50;;
19877;SDS011;10101;52.204;9.910;2023-12-14T09:36:09;5.30;;;3.47;;
19877;SDS011;10101;52.204;9.910;2023-12-14T09:38:35;4.30;;;3.00;;
19877;SDS011;10101;52.204;9.910;2023-12-14T09:41:02;4.63;;;3.40;;
19877;SDS011;10101;52.204;9.910;2023-12-14T09:43:29;4.90;;;3.90;;
19877;SDS011;10101;52.204;9.910;2023-12-14T09:45:56;5.27;;;3.43;;
19877;SDS011;10101;52.204;9.910;2023-12-14T09:48:24;6.10;;;3.57;;
19877;SDS011;10101;52.204;9.910;2023-12-14T09:50:52;4.27;;;3.23;;
19877;SDS011;10101;52.204;9.910;2023-12-14T09:53:19;6.23;;;3.87;;
19877;SDS011;10101;52.204;9.910;2023-12-14T09:55:45;4.43;;;3.53;;
19877;SDS011;10101;52.204;9.910;2023-12-14T09:58:12;4.50;;;3.30;;
19877;SDS011;10101;52.204;9.910;2023-12-14T10:00:39;5.50;;;3.37;;
19877;SDS011;10101;52.204;9.910;2023-12-14T10:03:17;4.77;;;3.40;;
19877;SDS011;10101;52.204;9.910;2023-12-14T10:05:49;5.87;;;3.30;;
19877;SDS011;10101;52.204;9.910;2023-12-14T10:08:17;4.23;;;2.80;;
19877;SDS011;10101;52.204;9.910;2023-12-14T10:10:44;5.57;;;3.20;;
19877;SDS011;10101;52.204;9.910;2023-12-14T10:13:14;4.10;;;3.30;;
19877;SDS011;10101;52.204;9.910;2023-12-14T10:15:40;6.07;;;3.57;;
19877;SDS011;10101;52.204;9.910;2023-12-14T10:18:08;4.47;;;3.90;;
19877;SDS011;10101;52.204;9.910;2023-12-14T10:20:34;4.00;;;3.53;;
19877;SDS011;10101;52.204;9.910;2023-12-14T10:23:02;4.13;;;3.07;;
19877;SDS011;10101;52.204;9.910;2023-12-14T10:25:31;2.90;;;2.50;;
19877;SDS011;10101;52.204;9.910;2023-12-14T10:27:58;5.03;;;3.23;;
19877;SDS011;10101;52.204;9.910;2023-12-14T10:30:27;5.10;;;3.63;;
19877;SDS011;10101;52.204;9.910;2023-12-14T10:32:55;4.60;;;3.67;;
19877;SDS011;10101;52.204;9.910;2023-12-14T10:35:22;6.00;;;4.23;;
19877;SDS011;10101;52.204;9.910;2023-12-14T10:37:49;7.90;;;4.40;;
19877;SDS011;10101;52.204;9.910;2023-12-14T10:40:17;5.33;;;3.80;;
19877;SDS011;10101;52.204;9.910;2023-12-14T10:42:47;5.20;;;3.60;;
19877;SDS011;10101;52.204;9.910;2023-12-14T10:45:15;6.40;;;3.30;;
19877;SDS011;10101;52.204;9.910;2023-12-14T10:47:45;6.60;;;3.70;;
19877;SDS011;10101;52.204;9.910;2023-12-14T10:50:13;3.70;;;2.83;;
19877;SDS011;10101;52.204;9.910;2023-12-14T10:52:40;5.43;;;3.37;;
19877;SDS011;10101;52.204;9.910;2023-12-14T10:55:09;4.93;;;3.40;;
19877;SDS011;10101;52.204;9.910;2023-12-14T10:57:41;6.07;;;3.50;;
19877;SDS011;10101;52.204;9.910;2023-12-14T11:00:09;5.30;;;3.40;;
19877;SDS011;10101;52.204;9.910;2023-12-14T11:02:39;6.47;;;4.03;;
19877;SDS011;10101;52.204;9.910;2023-12-14T11:05:08;5.17;;;3.23;;
19877;SDS011;10101;52.204;9.910;2023-12-14T11:07:47;4.70;;;3.60;;
19877;SDS011;10101;52.204;9.910;2023-12-14T11:10:20;4.67;;;3.60;;
19877;SDS011;10101;52.204;9.910;2023-12-14T11:12:54;6.13;;;3.97;;
19877;SDS011;10101;52.204;9.910;2023-12-14T11:15:24;5.57;;;4.20;;
19877;SDS011;10101;52.204;9.910;2023-12-14T11:20:48;4.13;;;3.57;;
19877;SDS011;10101;52.204;9.910;2023-12-14T11:23:16;4.83;;;3.53;;
19877;SDS011;10101;52.204;9.910;2023-12-14T11:25:46;5.27;;;3.37;;
19877;SDS011;10101;52.204;9.910;2023-12-14T11:28:15;7.37;;;4.20;;
19877;SDS011;10101;52.204;9.910;2023-12-14T11:30:44;4.93;;;3.97;;
19877;SDS011;10101;52.204;9.910;2023-12-14T11:33:11;6.67;;;4.30;;
19877;SDS011;10101;52.204;9.910;2023-12-14T11:35:38;5.97;;;3.90;;
19877;SDS011;10101;52.204;9.910;2023-12-14T11:38:05;3.80;;;3.20;;
19877;SDS011;10101;52.204;9.910;2023-12-14T11:40:37;6.17;;;4.77;;
19877;SDS011;10101;52.204;9.910;2023-12-14T11:43:04;6.30;;;4.50;;
19877;SDS011;10101;52.204;9.910;2023-12-14T11:45:33;5.80;;;3.93;;
19877;SDS011;10101;52.204;9.910;2023-12-14T11:48:02;6.17;;;4.17;;
19877;SDS011;10101;52.204;9.910;2023-12-14T11:50:31;7.73;;;4.60;;
19877;SDS011;10101;52.204;9.910;2023-12-14T11:52:59;6.33;;;4.57;;
19877;SDS011;10101;52.204;9.910;2023-12-14T11:55:28;6.67;;;4.40;;
19877;SDS011;10101;52.204;9.910;2023-12-14T11:57:55;5.73;;;4.07;;
19877;SDS011;10101;52.204;9.910;2023-12-14T12:00:23;5.83;;;4.03;;
19877;SDS011;10101;52.204;9.910;2023-12-14T12:02:51;6.20;;;3.83;;
19877;SDS011;10101;52.204;9.910;2023-12-14T12:05:19;6.33;;;4.17;;
19877;SDS011;10101;52.204;9.910;2023-12-14T12:08:01;5.83;;;4.20;;
19877;SDS011;10101;52.204;9.910;2023-12-14T12:10:28;5.47;;;4.10;;
19877;SDS011;10101;52.204;9.910;2023-12-14T12:12:58;6.60;;;3.90;;
19877;SDS011;10101;52.204;9.910;2023-12-14T12:15:25;5.77;;;4.30;;
19877;SDS011;10101;52.204;9.910;2023-12-14T12:17:52;6.13;;;4.40;;
19877;SDS011;10101;52.204;9.910;2023-12-14T12:20:20;9.17;;;4.80;;
19877;SDS011;10101;52.204;9.910;2023-12-14T12:22:46;5.27;;;3.93;;
19877;SDS011;10101;52.204;9.910;2023-12-14T12:25:13;4.67;;;3.57;;
19877;SDS011;10101;52.204;9.910;2023-12-14T12:27:40;4.77;;;3.57;;
19877;SDS011;10101;52.204;9.910;2023-12-14T12:30:07;5.57;;;4.07;;
19877;SDS011;10101;52.204;9.910;2023-12-14T12:32:34;5.90;;;4.37;;
19877;SDS011;10101;52.204;9.910;2023-12-14T12:35:01;6.10;;;4.10;;
19877;SDS011;10101;52.204;9.910;2023-12-14T12:37:30;8.87;;;3.90;;
19877;SDS011;10101;52.204;9.910;2023-12-14T12:39:57;5.27;;;3.80;;
19877;SDS011;10101;52.204;9.910;2023-12-14T12:42:23;6.63;;;4.27;;
19877;SDS011;10101;52.204;9.910;2023-12-14T12:44:50;7.17;;;4.13;;
19877;SDS011;10101;52.204;9.910;2023-12-14T12:47:17;6.80;;;4.60;;
19877;SDS011;10101;52.204;9.910;2023-12-14T12:49:44;7.27;;;4.37;;
19877;SDS011;10101;52.204;9.910;2023-12-14T12:52:10;6.20;;;4.50;;
19877;SDS011;10101;52.204;9.910;2023-12-14T12:54:38;6.10;;;4.40;;
19877;SDS011;10101;52.204;9.910;2023-12-14T12:57:05;5.00;;;4.07;;
19877;SDS011;10101;52.204;9.910;2023-12-14T12:59:32;7.17;;;4.77;;
19877;SDS011;10101;52.204;9.910;2023-12-14T13:01:59;8.73;;;4.70;;
19877;SDS011;10101;52.204;9.910;2023-12-14T13:04:27;6.97;;;4.23;;
19877;SDS011;10101;52.204;9.910;2023-12-14T13:06:55;6.77;;;4.80;;
19877;SDS011;10101;52.204;9.910;2023-12-14T13:09:22;8.07;;;4.63;;
19877;SDS011;10101;52.204;9.910;2023-12-14T13:11:50;7.87;;;4.63;;
19877;SDS011;10101;52.204;9.910;2023-12-14T13:14:17;6.60;;;4.40;;
19877;SDS011;10101;52.204;9.910;2023-12-14T13:16:44;6.53;;;4.60;;
19877;SDS011;10101;52.204;9.910;2023-12-14T13:19:12;5.37;;;4.10;;
19877;SDS011;10101;52.204;9.910;2023-12-14T13:21:39;7.17;;;5.00;;
19877;SDS011;10101;52.204;9.910;2023-12-14T13:24:06;6.13;;;3.90;;
19877;SDS011;10101;52.204;9.910;2023-12-14T13:26:33;8.43;;;4.50;;
19877;SDS011;10101;52.204;9.910;2023-12-14T13:29:01;6.40;;;4.17;;
19877;SDS011;10101;52.204;9.910;2023-12-14T13:31:28;6.23;;;4.10;;
19877;SDS011;10101;52.204;9.910;2023-12-14T13:33:54;6.47;;;4.13;;
19877;SDS011;10101;52.204;9.910;2023-12-14T13:36:21;6.83;;;4.10;;
19877;SDS011;10101;52.204;9.910;2023-12-14T13:38:47;8.00;;;4.40;;
19877;SDS011;10101;52.204;9.910;2023-12-14T13:41:14;8.67;;;4.23;;
19877;SDS011;10101;52.204;9.910;2023-12-14T13:43:40;7.17;;;4.57;;
19877;SDS011;10101;52.204;9.910;2023-12-14T13:46:09;6.07;;;3.80;;
19877;SDS011;10101;52.204;9.910;2023-12-14T13:48:36;5.77;;;3.83;;
19877;SDS011;10101;52.204;9.910;2023-12-14T13:51:03;7.40;;;4.13;;
19877;SDS011;10101;52.204;9.910;2023-12-14T13:53:32;6.73;;;4.03;;
19877;SDS011;10101;52.204;9.910;2023-12-14T13:55:59;7.33;;;4.60;;
19877;SDS011;10101;52.204;9.910;2023-12-14T13:58:26;7.03;;;4.40;;
19877;SDS011;10101;52.204;9.910;2023-12-14T14:00:52;8.83;;;4.80;;
19877;SDS011;10101;52.204;9.910;2023-12-14T14:03:20;6.00;;;4.07;;
19877;SDS011;10101;52.204;9.910;2023-12-14T14:05:47;6.87;;;4.73;;
19877;SDS011;10101;52.204;9.910;2023-12-14T14:08:13;7.50;;;5.47;;
19877;SDS011;10101;52.204;9.910;2023-12-14T14:10:40;5.93;;;4.53;;
19877;SDS011;10101;52.204;9.910;2023-12-14T14:13:06;8.17;;;4.60;;
19877;SDS011;10101;52.204;9.910;2023-12-14T14:15:33;5.73;;;3.73;;
19877;SDS011;10101;52.204;9.910;2023-12-14T14:18:00;6.33;;;4.60;;
19877;SDS011;10101;52.204;9.910;2023-12-14T14:20:29;6.43;;;3.73;;
19877;SDS011;10101;52.204;9.910;2023-12-14T14:22:55;6.13;;;4.30;;
19877;SDS011;10101;52.204;9.910;2023-12-14T14:25:24;6.50;;;4.00;;
19877;SDS011;10101;52.204;9.910;2023-12-14T14:27:51;5.53;;;4.03;;
19877;SDS011;10101;52.204;9.910;2023-12-14T14:30:17;6.03;;;3.80;;
19877;SDS011;10101;52.204;9.910;2023-12-14T14:32:44;6.73;;;4.20;;
19877;SDS011;10101;52.204;9.910;2023-12-14T14:35:11;5.53;;;4.10;;
19877;SDS011;10101;52.204;9.910;2023-12-14T14:37:39;5.40;;;3.83;;
19877;SDS011;10101;52.204;9.910;2023-12-14T14:40:10;7.90;;;4.50;;
19877;SDS011;10101;52.204;9.910;2023-12-14T14:42:38;6.13;;;3.93;;
19877;SDS011;10101;52.204;9.910;2023-12-14T14:45:05;5.70;;;3.60;;
19877;SDS011;10101;52.204;9.910;2023-12-14T14:47:33;6.00;;;3.87;;
19877;SDS011;10101;52.204;9.910;2023-12-14T14:50:00;5.40;;;3.83;;